Time;durP1;ratioP1;P1;durP2;ratioP2;P2;SDS_P1;SDS_P2;PMS_P1;PMS_P2;Temp;Humidity;BMP_temperature;BMP_pressure;BME280_temperature;BME280_humidity;BME280_pressure;Samples;Min_cycle;Max_cycle;Signal;HPM_P1;HPM_P2
2022/09/20 00:00:44;;;;;;;2.40;0.93;;;;;;;17.67;61.56;100862.66;5071718;28;20171;-65
2022/09/20 00:03:09;;;;;;;2.30;1.30;;;;;;;17.68;61.80;100872.03;5070599;28;20496;-66
2022/09/20 00:05:36;;;;;;;2.03;0.93;;;;;;;17.67;61.79;100870.38;5053553;28;20579;-66
2022/09/20 00:08:05;;;;;;;2.20;1.03;;;;;;;17.67;61.81;100871.22;5070317;28;20637;-66
2022/09/20 00:10:34;;;;;;;1.80;1.10;;;;;;;17.68;61.75;100870.03;5071076;28;20852;-66
2022/09/20 00:13:01;;;;;;;2.47;1.17;;;;;;;17.66;61.38;100869.53;5053391;28;20406;-66
2022/09/20 00:15:26;;;;;;;2.40;1.03;;;;;;;17.68;61.27;100872.03;5068852;28;20428;-66
2022/09/20 00:17:52;;;;;;;1.93;1.10;;;;;;;17.67;61.30;100867.53;5068169;28;20405;-65
2022/09/20 00:20:17;;;;;;;3.43;1.30;;;;;;;17.67;61.53;100868.38;5051861;28;20159;-66
2022/09/20 00:22:43;;;;;;;2.67;1.10;;;;;;;17.67;61.59;100867.53;5069946;28;20201;-66
2022/09/20 00:25:08;;;;;;;2.60;0.93;;;;;;;17.66;61.72;100869.53;5069785;28;20832;-66
2022/09/20 00:27:34;;;;;;;2.07;1.03;;;;;;;17.66;61.59;100869.53;5069860;28;20898;-65
2022/09/20 00:30:00;;;;;;;2.70;1.30;;;;;;;17.65;61.67;100862.19;5069969;28;20649;-66
2022/09/20 00:32:25;;;;;;;3.50;0.97;;;;;;;17.66;61.49;100872.41;5102678;28;20584;-65
2022/09/20 00:37:39;;;;;;;3.80;1.20;;;;;;;17.66;61.56;100863.03;5070253;28;20200;-66
2022/09/20 00:40:06;;;;;;;2.00;1.00;;;;;;;17.65;61.85;100867.06;5085339;28;20433;-66
2022/09/20 00:42:32;;;;;;;2.50;1.07;;;;;;;17.66;61.58;100872.41;5102301;28;20425;-65
2022/09/20 00:45:02;;;;;;;2.43;1.30;;;;;;;17.66;61.63;100869.53;5051229;28;20486;-66
2022/09/20 00:47:37;;;;;;;2.10;1.20;;;;;;;17.66;61.51;100874.44;5100986;28;20173;-66
2022/09/20 00:50:27;;;;;;;2.43;1.33;;;;;;;17.65;61.69;100873.59;5084819;28;20487;-66
2022/09/20 00:52:57;;;;;;;2.33;1.30;;;;;;;17.65;61.89;100876.47;5070266;28;20810;-66
2022/09/20 00:55:23;;;;;;;1.63;0.80;;;;;;;17.65;61.52;100878.50;5069559;28;20497;-66
2022/09/20 00:57:48;;;;;;;1.90;1.10;;;;;;;17.64;61.75;100877.66;5069106;28;20424;-65
2022/09/20 01:00:36;;;;;;;2.00;0.83;;;;;;;17.64;61.63;100874.81;5069230;28;20259;-66
2022/09/20 01:03:02;;;;;;;5.10;1.10;;;;;;;17.64;61.65;100877.66;5065694;28;20259;-66
2022/09/20 01:05:28;;;;;;;2.00;1.20;;;;;;;17.63;61.75;100873.13;5048867;28;20828;-66
2022/09/20 01:07:53;;;;;;;2.53;1.00;;;;;;;17.64;61.58;100877.66;5065896;28;20419;-66
2022/09/20 01:10:19;;;;;;;2.57;0.93;;;;;;;17.63;61.20;100864.56;5068303;28;20229;-66
2022/09/20 01:12:45;;;;;;;1.87;1.00;;;;;;;17.63;61.65;100870.28;5069329;28;20179;-66
2022/09/20 01:15:10;;;;;;;2.00;1.00;;;;;;;17.64;61.78;100877.66;5068744;28;20175;-66
2022/09/20 01:17:38;;;;;;;2.10;1.00;;;;;;;17.63;61.66;100875.16;5052045;28;20266;-65
2022/09/20 01:20:22;;;;;;;2.30;1.00;;;;;;;17.63;61.43;100876.00;5069027;28;20179;-66
2022/09/20 01:23:16;;;;;;;2.00;1.20;;;;;;;17.63;61.54;100880.88;5052087;28;20459;-66
2022/09/20 01:25:50;;;;;;;2.33;1.27;;;;;;;17.62;61.71;100871.47;5050165;28;20458;-65
2022/09/20 01:28:15;;;;;;;3.13;1.40;;;;;;;17.64;61.25;100882.53;5066523;28;20424;-66
2022/09/20 01:30:44;;;;;;;2.47;1.33;;;;;;;17.62;61.84;100868.63;5070075;28;20413;-66
2022/09/20 01:33:34;;;;;;;2.00;0.80;;;;;;;17.63;61.74;100875.16;5085669;28;20266;-66
2022/09/20 01:36:00;;;;;;;4.40;1.17;;;;;;;17.62;61.62;100880.06;5097507;28;20417;-66
2022/09/20 01:39:02;;;;;;;2.03;0.97;;;;;;;17.63;61.55;100878.00;5085694;28;20421;-65
2022/09/20 01:41:47;;;;;;;2.00;1.00;;;;;;;17.62;61.57;100874.34;5070691;28;20258;-66
2022/09/20 01:44:49;;;;;;;1.93;1.17;;;;;;;17.61;61.73;100868.97;5102086;28;20900;-66
2022/09/20 01:47:35;;;;;;;3.20;1.03;;;;;;;17.61;61.85;100866.13;5084819;28;20447;-66
2022/09/20 01:50:10;;;;;;;1.70;1.00;;;;;;;17.62;61.44;100873.50;5068914;28;20437;-66
2022/09/20 01:52:56;;;;;;;2.10;1.10;;;;;;;17.60;61.84;100868.16;5069919;28;20906;-66
2022/09/20 01:55:33;;;;;;;2.13;1.10;;;;;;;17.60;61.64;100865.28;5072775;28;20986;-66
2022/09/20 01:58:36;;;;;;;1.90;0.90;;;;;;;17.60;61.64;100865.28;5072534;28;20421;-66
2022/09/20 02:01:33;;;;;;;1.83;0.97;;;;;;;17.61;61.69;100866.94;5073375;28;20405;-66
2022/09/20 02:04:03;;;;;;;1.97;0.90;;;;;;;17.60;61.34;100861.63;5073308;28;20409;-65
2022/09/20 02:06:55;;;;;;;2.40;1.00;;;;;;;17.61;61.56;100868.97;5073361;28;20445;-66
2022/09/20 02:09:44;;;;;;;2.07;0.90;;;;;;;17.59;61.47;100857.06;5071945;28;20417;-65
2022/09/20 02:12:25;;;;;;;3.23;1.10;;;;;;;17.58;61.33;100861.97;5071863;28;20523;-66
2022/09/20 02:15:02;;;;;;;1.87;0.90;;;;;;;17.59;61.71;100865.63;5072590;28;20490;-65
2022/09/20 02:17:42;;;;;;;2.53;1.27;;;;;;;17.58;61.66;100867.69;5071878;28;20416;-65
2022/09/20 02:20:32;;;;;;;1.97;1.10;;;;;;;17.59;61.20;100863.63;5070383;28;20497;-65
2022/09/20 02:23:20;;;;;;;2.23;1.10;;;;;;;17.58;61.63;100867.69;5064000;28;20528;-66
2022/09/20 02:26:27;;;;;;;2.23;1.40;;;;;;;17.58;61.49;100861.97;5049618;28;20949;-66
2022/09/20 02:29:27;;;;;;;3.10;1.30;;;;;;;17.58;61.89;100856.25;5063884;28;20410;-66
2022/09/20 02:32:39;;;;;;;1.80;1.00;;;;;;;17.58;61.56;100861.97;5069874;28;20412;-66
2022/09/20 02:35:20;;;;;;;1.90;1.00;;;;;;;17.57;61.64;100863.16;5037300;28;20453;-66
2022/09/20 02:38:16;;;;;;;2.40;1.40;;;;;;;17.57;61.52;100865.19;5051982;28;20516;-66
2022/09/20 02:41:00;;;;;;;2.43;1.10;;;;;;;17.58;61.48;100864.81;5078628;28;20525;-65
2022/09/20 02:44:00;;;;;;;2.30;1.00;;;;;;;17.56;61.58;100858.63;5052560;28;20818;-66
2022/09/20 02:46:41;;;;;;;2.20;1.47;;;;;;;17.56;61.40;100855.78;5084912;28;20465;-65
2022/09/20 02:49:43;;;;;;;1.97;0.90;;;;;;;17.57;61.39;100854.59;5052002;28;20552;-66
2022/09/20 02:52:38;;;;;;;1.97;1.10;;;;;;;17.55;61.52;100847.59;5052751;28;20869;-66
2022/09/20 02:55:17;;;;;;;2.20;1.13;;;;;;;17.57;61.73;100857.47;5098756;28;20511;-66
2022/09/20 02:58:20;;;;;;;2.13;0.90;;;;;;;17.56;61.23;100857.81;5070716;28;20417;-66
2022/09/20 03:00:53;;;;;;;3.33;1.20;;;;;;;17.56;61.09;100863.53;5071931;28;20405;-65
2022/09/20 03:03:37;;;;;;;1.90;1.10;;;;;;;17.55;61.33;100867.59;5070680;28;20421;-65
2022/09/20 03:06:34;;;;;;;2.43;1.20;;;;;;;17.55;61.49;100871.25;5071768;28;21023;-66
2022/09/20 03:09:33;;;;;;;2.00;0.90;;;;;;;17.56;61.63;100875.75;5063520;28;20482;-65
2022/09/20 03:12:13;;;;;;;1.70;1.00;;;;;;;17.55;61.32;100876.16;5070202;28;20418;-65
2022/09/20 03:14:42;;;;;;;3.03;1.10;;;;;;;17.56;61.60;100883.50;5055144;28;20409;-65
2022/09/20 03:17:18;;;;;;;2.40;1.00;;;;;;;17.55;61.17;100879.81;5054059;28;20499;-66
2022/09/20 03:20:12;;;;;;;2.07;1.10;;;;;;;17.55;61.54;100873.28;5070180;28;20475;-66
2022/09/20 03:23:08;;;;;;;1.90;1.07;;;;;;;17.55;61.86;100890.41;5071484;28;20467;-66
2022/09/20 03:26:08;;;;;;;2.13;1.10;;;;;;;17.54;61.29;100895.28;5071523;28;20457;-65
2022/09/20 03:29:12;;;;;;;1.80;1.07;;;;;;;17.54;61.36;100892.44;5069019;28;20486;-66
2022/09/20 03:31:38;;;;;;;2.40;1.10;;;;;;;17.53;61.66;100890.78;5071187;28;20420;-66
2022/09/20 03:34:33;;;;;;;3.17;1.00;;;;;;;17.53;61.57;100899.34;5071399;28;20774;-66
2022/09/20 03:37:02;;;;;;;2.10;1.03;;;;;;;17.53;61.08;100896.47;5070020;28;20159;-66
2022/09/20 03:40:05;;;;;;;1.87;1.00;;;;;;;17.53;61.71;100899.34;5103710;28;20425;-66
2022/09/20 03:42:30;;;;;;;4.17;1.67;;;;;;;17.53;61.24;100901.34;5071337;28;20455;-65
2022/09/20 03:45:18;;;;;;;2.27;1.00;;;;;;;17.53;61.57;100892.78;5086670;28;20895;-65
2022/09/20 03:48:25;;;;;;;1.90;1.10;;;;;;;17.54;61.50;100900.16;5071222;28;20171;-65
2022/09/20 03:51:05;;;;;;;1.70;0.90;;;;;;;17.53;61.25;100893.63;5068679;28;20425;-66
2022/09/20 03:53:52;;;;;;;2.13;1.07;;;;;;;17.52;61.55;100903.38;5067646;28;20437;-65
2022/09/20 03:56:24;;;;;;;1.77;0.90;;;;;;;17.52;61.70;100903.38;5100287;28;20500;-65
2022/09/20 03:59:09;;;;;;;2.13;0.90;;;;;;;17.52;61.43;100906.25;5071347;28;20416;-66
2022/09/20 04:01:50;;;;;;;2.10;1.03;;;;;;;17.51;61.24;100907.41;5071252;28;20766;-65
2022/09/20 04:04:43;;;;;;;2.00;0.90;;;;;;;17.52;61.70;100909.09;5071575;28;20405;-65
2022/09/20 04:07:43;;;;;;;2.03;0.93;;;;;;;17.51;61.51;100901.69;5069652;28;20999;-66
2022/09/20 04:10:32;;;;;;;2.50;0.87;;;;;;;17.50;61.39;100905.75;5071216;28;20966;-66
2022/09/20 04:13:01;;;;;;;1.93;0.83;;;;;;;17.50;61.83;100905.75;5053731;28;20785;-66
2022/09/20 04:15:40;;;;;;;4.33;1.20;;;;;;;17.50;61.36;100905.75;5069230;28;20413;-66
2022/09/20 04:18:24;;;;;;;2.00;1.20;;;;;;;17.49;61.70;100901.25;5070717;28;20963;-65
2022/09/20 04:21:23;;;;;;;2.83;1.00;;;;;;;17.50;61.57;100910.66;5070756;28;21030;-65
2022/09/20 04:23:48;;;;;;;1.90;0.90;;;;;;;17.51;61.72;100909.44;5025824;28;20488;-66
2022/09/20 04:26:15;;;;;;;2.53;1.10;;;;;;;17.50;61.46;100905.75;5070685;28;20519;-66
2022/09/20 04:29:07;;;;;;;2.23;1.20;;;;;;;17.49;61.48;100904.09;5085774;28;20622;-66
2022/09/20 04:31:44;;;;;;;1.70;0.93;;;;;;;17.50;61.36;100910.66;5070445;28;20442;-66
2022/09/20 04:34:16;;;;;;;2.37;1.00;;;;;;;17.50;61.80;100905.75;5102145;28;20437;-66
2022/09/20 04:37:02;;;;;;;2.43;1.03;;;;;;;17.50;61.38;100914.31;5069023;28;20411;-66
2022/09/20 04:39:41;;;;;;;1.77;0.87;;;;;;;17.49;61.88;100915.50;5102320;28;20444;-65
2022/09/20 04:42:28;;;;;;;2.03;0.97;;;;;;;17.50;61.72;100919.22;5068949;28;20422;-65
2022/09/20 04:45:29;;;;;;;1.80;0.90;;;;;;;17.48;61.23;100908.16;5070399;28;20390;-65
2022/09/20 04:48:15;;;;;;;1.70;0.80;;;;;;;17.49;61.43;100914.66;5069367;28;20429;-67
2022/09/20 04:51:17;;;;;;;1.40;0.80;;;;;;;17.49;61.60;100921.22;5082732;28;20437;-66
2022/09/20 04:54:08;;;;;;;2.07;0.97;;;;;;;17.49;61.64;100926.94;5054423;28;20404;-67
2022/09/20 04:56:52;;;;;;;2.77;1.00;;;;;;;17.48;61.61;100930.97;5097169;28;20457;-67
2022/09/20 04:59:45;;;;;;;1.83;0.90;;;;;;;17.47;61.48;100935.03;5070016;28;20405;-66
2022/09/20 05:02:41;;;;;;;3.10;1.13;;;;;;;17.48;61.51;100936.69;5041941;28;20444;-66
2022/09/20 05:05:25;;;;;;;2.97;1.00;;;;;;;17.48;61.85;100936.69;5068309;28;20413;-66
2022/09/20 05:08:17;;;;;;;1.80;0.87;;;;;;;17.48;61.56;100936.69;5070222;28;20424;-66
2022/09/20 05:11:16;;;;;;;2.03;0.93;;;;;;;17.47;61.52;100932.19;5066882;28;20574;-66
2022/09/20 05:13:56;;;;;;;1.80;1.00;;;;;;;17.47;61.48;100932.19;5070093;28;20495;-66
2022/09/20 05:16:30;;;;;;;1.93;0.90;;;;;;;17.46;61.55;100930.50;5070146;28;20417;-66
2022/09/20 05:18:59;;;;;;;1.93;0.90;;;;;;;17.46;61.26;100939.06;5069862;28;20424;-66
2022/09/20 05:21:49;;;;;;;2.53;1.40;;;;;;;17.46;61.67;100944.75;5069989;28;20749;-66
2022/09/20 05:24:37;;;;;;;1.87;0.87;;;;;;;17.46;61.53;100947.63;5070476;28;20398;-66
2022/09/20 05:27:18;;;;;;;2.17;0.93;;;;;;;17.46;61.35;100956.19;5070198;28;20536;-66
2022/09/20 05:29:48;;;;;;;2.23;1.10;;;;;;;17.45;61.17;100951.66;5104066;28;20401;-66
2022/09/20 05:32:25;;;;;;;2.23;0.83;;;;;;;17.46;61.81;100956.19;5073900;28;20900;-66
2022/09/20 05:35:05;;;;;;;1.80;0.90;;;;;;;17.47;61.41;100957.03;5073750;28;20968;-66
2022/09/20 05:37:43;;;;;;;1.63;0.80;;;;;;;17.47;61.52;100960.72;5072516;28;20417;-66
2022/09/20 05:40:31;;;;;;;1.67;0.90;;;;;;;17.45;61.54;100963.09;5073838;28;21002;-66
2022/09/20 05:43:19;;;;;;;2.40;1.10;;;;;;;17.46;61.66;100959.03;5087850;28;20781;-66
2022/09/20 05:46:17;;;;;;;2.00;0.90;;;;;;;17.45;61.55;100948.81;5088033;28;20449;-66
2022/09/20 05:48:54;;;;;;;4.00;1.10;;;;;;;17.44;61.45;100946.31;5100869;28;20469;-66
2022/09/20 05:51:42;;;;;;;1.97;0.90;;;;;;;17.44;61.53;100943.47;5104924;28;20480;-66
2022/09/20 05:54:20;;;;;;;1.90;1.00;;;;;;;17.45;61.45;100954.53;5072271;28;20405;-66
2022/09/20 05:57:09;;;;;;;2.60;0.93;;;;;;;17.44;61.53;100952.88;5104466;28;20480;-66
2022/09/20 05:59:51;;;;;;;2.37;1.10;;;;;;;17.44;61.42;100964.28;5072520;28;20711;-67
2022/09/20 06:02:52;;;;;;;2.23;0.90;;;;;;;17.44;61.46;100969.16;5056011;28;20512;-66
2022/09/20 06:05:25;;;;;;;1.97;1.10;;;;;;;17.45;61.42;100967.97;5027933;28;20453;-66
2022/09/20 06:08:15;;;;;;;2.90;1.10;;;;;;;17.44;61.47;100972.84;5073064;28;20485;-66
2022/09/20 06:10:48;;;;;;;1.77;0.90;;;;;;;17.44;61.29;100970.00;5072035;28;20413;-66
2022/09/20 06:13:32;;;;;;;2.63;1.27;;;;;;;17.43;61.73;100973.19;5072069;28;20424;-66
2022/09/20 06:16:04;;;;;;;2.00;0.87;;;;;;;17.44;61.49;100969.16;5056178;28;20436;-66
2022/09/20 06:18:49;;;;;;;1.67;0.90;;;;;;;17.43;61.38;100974.03;5071901;28;20436;-66
2022/09/20 06:21:23;;;;;;;2.47;1.20;;;;;;;17.42;61.60;100969.53;5055979;28;20409;-66
2022/09/20 06:23:48;;;;;;;2.00;1.00;;;;;;;17.43;61.49;100974.03;5072862;28;20424;-66
2022/09/20 06:26:20;;;;;;;2.73;1.10;;;;;;;17.42;61.88;100975.25;5071721;28;20452;-66
2022/09/20 06:28:50;;;;;;;1.90;1.00;;;;;;;17.42;61.50;100972.38;5071330;28;20263;-66
2022/09/20 06:31:16;;;;;;;2.53;1.20;;;;;;;17.43;61.64;100974.03;5072662;28;20421;-66
2022/09/20 06:33:56;;;;;;;2.10;0.87;;;;;;;17.43;61.29;100973.19;5072011;28;20484;-66
2022/09/20 06:42:17;;;;;;;1.80;0.83;;;;;;;17.42;61.62;100975.25;5072794;28;20513;-66
2022/09/20 06:44:43;;;;;;;2.20;1.13;;;;;;;17.43;61.48;100967.50;5072871;28;20401;-66
2022/09/20 06:47:12;;;;;;;1.90;0.90;;;;;;;17.42;61.33;100966.69;5072408;28;20210;-66
2022/09/20 06:49:40;;;;;;;1.60;0.80;;;;;;;17.42;61.49;100965.84;5071494;28;20654;-66
2022/09/20 06:52:05;;;;;;;2.70;1.43;;;;;;;17.42;61.69;100962.97;5071454;28;20440;-66
2022/09/20 06:54:31;;;;;;;1.40;0.63;;;;;;;17.41;61.41;100964.97;5071336;28;20437;-66
2022/09/20 06:56:56;;;;;;;1.70;1.00;;;;;;;17.41;61.46;100973.53;5072382;28;20223;-66
2022/09/20 06:59:22;;;;;;;1.90;1.00;;;;;;;17.42;61.62;100966.69;5072556;28;20642;-66
2022/09/20 07:01:47;;;;;;;2.20;1.07;;;;;;;17.42;61.33;100969.53;5072040;28;20179;-67
2022/09/20 07:04:13;;;;;;;1.80;1.00;;;;;;;17.43;61.61;100973.19;5071790;28;20186;-66
2022/09/20 07:06:39;;;;;;;3.70;1.33;;;;;;;17.41;61.21;100962.13;5070431;28;20692;-66
2022/09/20 07:09:05;;;;;;;1.50;0.70;;;;;;;17.42;61.57;100968.69;5070496;28;20511;-66
2022/09/20 07:11:32;;;;;;;1.90;1.00;;;;;;;17.42;61.18;100971.53;5070062;28;20424;-66
2022/09/20 07:13:58;;;;;;;1.70;0.83;;;;;;;17.42;61.49;100974.41;5071002;28;20944;-66
2022/09/20 07:16:25;;;;;;;2.23;1.00;;;;;;;17.42;61.40;100977.25;5072483;28;20420;-66
2022/09/20 07:18:53;;;;;;;1.70;0.80;;;;;;;17.42;61.29;100980.09;5071065;28;20206;-66
2022/09/20 07:21:19;;;;;;;1.63;0.80;;;;;;;17.41;61.59;100993.53;5072138;28;20479;-66
2022/09/20 07:23:44;;;;;;;1.97;0.97;;;;;;;17.41;61.71;100987.81;5054046;28;20432;-66
2022/09/20 07:26:25;;;;;;;2.47;0.90;;;;;;;17.41;61.11;100987.81;5104555;28;20956;-66
2022/09/20 07:28:50;;;;;;;1.60;0.80;;;;;;;17.41;61.36;100987.00;5070827;28;20261;-66
2022/09/20 07:31:20;;;;;;;1.73;0.90;;;;;;;17.39;61.53;100992.22;5104551;28;20423;-66
2022/09/20 07:33:45;;;;;;;2.43;1.30;;;;;;;17.41;61.44;100989.84;5087468;28;20226;-66
2022/09/20 07:36:13;;;;;;;2.20;1.03;;;;;;;17.39;61.24;100993.06;5070602;28;20413;-66
2022/09/20 07:38:39;;;;;;;1.90;0.90;;;;;;;17.39;61.29;100998.78;5071716;28;20186;-66
2022/09/20 07:41:05;;;;;;;1.67;0.90;;;;;;;17.39;61.53;100997.94;5087738;28;20412;-66
2022/09/20 07:43:30;;;;;;;2.27;1.00;;;;;;;17.40;61.49;101006.13;5104548;28;20164;-66
2022/09/20 07:45:56;;;;;;;1.80;0.90;;;;;;;17.39;61.51;100998.78;5087398;28;20245;-66
2022/09/20 07:48:23;;;;;;;1.90;0.93;;;;;;;17.40;61.53;100996.75;5087138;28;20170;-66
2022/09/20 07:50:50;;;;;;;1.70;0.80;;;;;;;17.39;61.37;101001.63;5070281;28;20159;-66
2022/09/20 07:53:16;;;;;;;2.03;1.00;;;;;;;17.39;61.52;100995.91;5070439;28;20511;-66
2022/09/20 07:55:41;;;;;;;2.43;1.13;;;;;;;17.40;61.71;101013.88;5071636;28;20461;-66
2022/09/20 07:58:06;;;;;;;1.83;0.83;;;;;;;17.40;61.46;101017.56;5071470;28;20571;-66
2022/09/20 08:00:32;;;;;;;1.80;0.90;;;;;;;17.40;61.37;101020.41;5071310;28;20171;-66
2022/09/20 08:02:59;;;;;;;1.87;0.97;;;;;;;17.40;61.39;101020.41;5071557;28;20183;-66
2022/09/20 08:05:24;;;;;;;2.10;1.00;;;;;;;17.39;61.93;101015.91;5071617;28;20209;-66
2022/09/20 08:07:50;;;;;;;1.50;0.73;;;;;;;17.40;61.58;101020.41;5071218;28;20421;-65
2022/09/20 08:10:15;;;;;;;1.70;0.90;;;;;;;17.39;61.43;101023.63;5070970;28;20190;-66
2022/09/20 08:12:41;;;;;;;1.40;0.80;;;;;;;17.39;61.55;101021.59;5071310;28;20175;-66
2022/09/20 08:15:06;;;;;;;1.50;0.80;;;;;;;17.39;61.64;101024.47;5070198;28;20193;-66
2022/09/20 08:17:32;;;;;;;1.90;0.97;;;;;;;17.39;61.65;101023.63;5070826;28;20183;-66
2022/09/20 08:19:57;;;;;;;2.17;1.30;;;;;;;17.40;61.44;101026.13;5069004;28;20197;-66
2022/09/20 08:22:23;;;;;;;2.10;1.17;;;;;;;17.39;61.33;101027.31;5070427;28;20292;-66
2022/09/20 08:24:48;;;;;;;2.93;0.90;;;;;;;17.39;61.49;101035.88;5070251;28;20983;-66
2022/09/20 08:27:14;;;;;;;2.60;1.10;;;;;;;17.41;61.46;101033.50;5070170;28;20202;-66
2022/09/20 08:29:39;;;;;;;1.93;0.90;;;;;;;17.40;61.29;101036.72;5070882;28;20190;-66
2022/09/20 08:32:05;;;;;;;1.50;0.80;;;;;;;17.41;61.60;101035.53;5071471;28;20175;-66
2022/09/20 08:34:30;;;;;;;1.80;1.10;;;;;;;17.40;61.29;101034.69;5069142;28;20175;-66
2022/09/20 08:36:56;;;;;;;1.60;0.83;;;;;;;17.40;61.30;101033.88;5103110;28;20242;-66
2022/09/20 08:39:21;;;;;;;2.10;0.90;;;;;;;17.40;61.54;101031.00;5071201;28;20175;-66
2022/09/20 08:42:09;;;;;;;1.90;0.90;;;;;;;17.41;61.00;101026.97;5069444;28;20167;-66
2022/09/20 08:44:42;;;;;;;1.60;0.90;;;;;;;17.40;61.26;101020.41;5097362;28;20604;-66
2022/09/20 08:47:20;;;;;;;2.67;1.10;;;;;;;17.38;61.51;101022.78;5068546;28;20488;-66
2022/09/20 08:49:45;;;;;;;1.90;0.93;;;;;;;17.38;61.42;101025.63;5052673;28;20757;-66
2022/09/20 08:52:15;;;;;;;2.00;1.10;;;;;;;17.39;61.71;101024.47;5068655;28;20437;-66
2022/09/20 08:54:42;;;;;;;3.13;1.20;;;;;;;17.39;61.83;101024.47;5069409;28;20179;-66
2022/09/20 08:57:14;;;;;;;2.70;1.17;;;;;;;17.39;61.46;101023.63;5069414;28;20421;-66
2022/09/20 08:59:39;;;;;;;1.40;0.70;;;;;;;17.39;61.66;101015.06;5051601;28;20946;-66
2022/09/20 09:02:15;;;;;;;1.90;1.10;;;;;;;17.39;61.17;101015.91;5071110;28;20421;-66
2022/09/20 09:04:40;;;;;;;1.60;0.80;;;;;;;17.40;61.44;101014.69;5072055;28;20228;-66
2022/09/20 09:07:10;;;;;;;2.07;1.07;;;;;;;17.39;61.74;101018.75;5072381;28;20465;-66
2022/09/20 09:09:36;;;;;;;1.53;0.87;;;;;;;17.38;62.13;101011.34;5072330;28;20575;-66
2022/09/20 09:12:01;;;;;;;2.10;0.80;;;;;;;17.37;61.79;101018.25;5056145;28;20508;-66
2022/09/20 09:14:53;;;;;;;1.57;0.80;;;;;;;17.37;61.57;101017.41;5056308;28;20356;-66
2022/09/20 09:17:23;;;;;;;2.20;1.10;;;;;;;17.38;61.80;101017.06;5059751;28;20168;-66
2022/09/20 09:19:51;;;;;;;1.50;0.87;;;;;;;17.39;61.40;101012.19;5072984;28;20466;-66
2022/09/20 09:22:36;;;;;;;1.67;1.00;;;;;;;17.39;61.26;101017.91;5073143;28;20512;-66
2022/09/20 09:25:07;;;;;;;1.40;0.73;;;;;;;17.38;61.54;101008.50;5074146;28;20425;-66
2022/09/20 09:27:33;;;;;;;2.07;1.10;;;;;;;17.38;61.78;101004.81;5074253;28;20421;-66
2022/09/20 09:29:59;;;;;;;1.70;0.90;;;;;;;17.39;61.51;101010.19;5073521;28;20440;-66
2022/09/20 09:32:29;;;;;;;2.13;0.80;;;;;;;17.39;61.58;101012.19;5072071;28;20447;-66
2022/09/20 09:34:56;;;;;;;3.13;1.10;;;;;;;17.38;61.34;101011.34;5073108;28;20163;-66
2022/09/20 09:37:29;;;;;;;2.50;0.97;;;;;;;17.38;61.74;101004.81;5073113;28;20416;-66
2022/09/20 09:40:17;;;;;;;1.70;1.00;;;;;;;17.39;61.80;101012.19;5088172;28;20433;-66
2022/09/20 09:42:50;;;;;;;2.10;1.00;;;;;;;17.39;61.63;101007.34;5103596;28;20481;-66
2022/09/20 09:45:30;;;;;;;1.53;0.80;;;;;;;17.38;61.27;101010.50;5073937;28;20958;-66
2022/09/20 09:47:56;;;;;;;2.27;1.00;;;;;;;17.40;61.47;101009.00;5072969;28;20413;-66
2022/09/20 09:50:26;;;;;;;2.07;1.10;;;;;;;17.40;61.73;101006.13;5073156;28;20441;-66
2022/09/20 09:52:59;;;;;;;1.70;1.00;;;;;;;17.40;61.39;101000.44;5073487;28;20179;-66
2022/09/20 09:55:56;;;;;;;1.67;0.90;;;;;;;17.39;61.84;101001.63;5073133;28;20473;-66
2022/09/20 09:58:38;;;;;;;1.70;1.00;;;;;;;17.39;60.91;101007.34;5056629;28;20437;-66
2022/09/20 10:01:04;;;;;;;1.57;0.90;;;;;;;17.38;61.63;101010.50;5057532;28;20425;-66
2022/09/20 10:03:51;;;;;;;3.73;1.10;;;;;;;17.38;61.79;101013.34;5073098;28;20447;-66
2022/09/20 10:06:29;;;;;;;1.97;1.10;;;;;;;17.38;61.30;101001.94;5058118;28;20479;-66
2022/09/20 10:08:57;;;;;;;2.00;1.10;;;;;;;17.37;61.60;101009.69;5072783;28;21334;-66
2022/09/20 10:12:01;;;;;;;1.73;0.90;;;;;;;17.36;61.49;101010.84;5073653;28;20466;-66
2022/09/20 10:14:58;;;;;;;2.03;0.90;;;;;;;17.36;61.65;101002.28;5071076;28;20478;-66
2022/09/20 10:17:37;;;;;;;2.10;0.90;;;;;;;17.37;61.56;101006.00;5073315;28;20474;-66
2022/09/20 10:20:06;;;;;;;2.03;1.10;;;;;;;17.36;61.65;101010.84;5070723;28;20524;-66
2022/09/20 10:22:48;;;;;;;1.80;1.13;;;;;;;17.37;61.24;101001.13;5071866;28;20528;-66
2022/09/20 10:25:35;;;;;;;1.40;0.80;;;;;;;17.36;61.82;101010.84;5070087;28;20429;-66
2022/09/20 10:28:19;;;;;;;1.60;0.83;;;;;;;17.36;61.69;101005.16;5071325;28;20440;-66
2022/09/20 10:31:03;;;;;;;2.27;1.00;;;;;;;17.34;62.00;101001.81;5072325;28;20398;-66
2022/09/20 10:33:47;;;;;;;2.00;1.00;;;;;;;17.35;61.96;100997.78;5072633;28;20828;-66
2022/09/20 10:36:23;;;;;;;1.80;0.90;;;;;;;17.35;61.30;100989.22;5072602;28;20790;-66
2022/09/20 10:39:04;;;;;;;1.90;0.80;;;;;;;17.36;61.75;100996.59;5072307;28;20432;-66
2022/09/20 10:44:51;;;;;;;1.77;0.93;;;;;;;17.36;61.49;100990.88;5072776;28;20506;-66
2022/09/20 10:47:20;;;;;;;1.60;0.80;;;;;;;17.35;61.65;100983.50;5055079;28;20506;-66
2022/09/20 10:49:56;;;;;;;1.90;0.87;;;;;;;17.35;61.43;100989.22;5071311;28;20433;-65
2022/09/20 10:52:44;;;;;;;1.97;1.10;;;;;;;17.37;61.37;100991.72;5072437;28;20892;-66
2022/09/20 10:55:46;;;;;;;1.77;0.97;;;;;;;17.35;61.55;100994.94;5071082;28;20994;-66
2022/09/20 10:58:12;;;;;;;2.23;1.00;;;;;;;17.35;61.71;100994.94;5085587;28;20417;-66
2022/09/20 11:01:11;;;;;;;2.10;0.83;;;;;;;17.38;61.63;100988.53;5072183;28;20455;-66
2022/09/20 11:04:11;;;;;;;1.47;0.80;;;;;;;17.38;61.79;100990.53;5070863;28;20437;-66
2022/09/20 11:06:51;;;;;;;1.70;1.00;;;;;;;17.37;61.55;100988.88;5070474;28;20484;-66
2022/09/20 11:09:19;;;;;;;1.87;0.97;;;;;;;17.37;61.79;100989.72;5071147;28;20807;-66
2022/09/20 11:11:51;;;;;;;1.60;0.80;;;;;;;17.38;61.61;100987.66;5053777;28;20926;-66
2022/09/20 11:14:21;;;;;;;2.73;0.90;;;;;;;17.39;61.84;100986.50;5070036;28;20422;-66
2022/09/20 11:17:03;;;;;;;2.00;0.80;;;;;;;17.39;61.62;100986.50;5053876;28;21169;-66
2022/09/20 11:19:34;;;;;;;1.67;0.90;;;;;;;17.40;61.88;100986.16;5069779;28;20781;-66
2022/09/20 11:22:13;;;;;;;1.90;1.10;;;;;;;17.39;61.54;100983.66;5070059;28;20406;-66
2022/09/20 11:24:49;;;;;;;2.17;1.10;;;;;;;17.37;61.36;100992.56;5070066;28;20425;-66
2022/09/20 11:27:18;;;;;;;2.00;0.90;;;;;;;17.37;61.80;100989.72;5103866;28;20471;-66
2022/09/20 11:30:19;;;;;;;2.27;1.07;;;;;;;17.37;61.56;100991.72;5072160;28;20406;-66
2022/09/20 11:33:07;;;;;;;2.33;1.00;;;;;;;17.37;61.55;100984.00;5069507;28;20437;-66
2022/09/20 11:35:45;;;;;;;1.90;1.00;;;;;;;17.35;61.78;100980.66;5070513;28;20471;-66
2022/09/20 11:38:25;;;;;;;2.17;0.97;;;;;;;17.36;61.74;100979.47;5071719;28;20904;-66
2022/09/20 11:41:03;;;;;;;2.43;0.97;;;;;;;17.36;61.16;100988.03;5086741;28;20489;-66
2022/09/20 11:43:30;;;;;;;1.50;0.70;;;;;;;17.38;61.52;100984.81;5103379;28;20455;-66
2022/09/20 11:46:00;;;;;;;2.00;1.10;;;;;;;17.36;61.93;100982.31;5103755;28;20460;-66
2022/09/20 11:48:38;;;;;;;2.33;1.00;;;;;;;17.37;61.48;100992.56;5086919;28;20471;-66
2022/09/20 11:51:23;;;;;;;1.60;0.90;;;;;;;17.36;61.45;100981.50;5071875;28;20410;-66
2022/09/20 11:54:00;;;;;;;1.77;0.90;;;;;;;17.36;61.28;100978.66;5071384;28;20418;-66
2022/09/20 11:56:27;;;;;;;1.73;1.00;;;;;;;17.36;61.25;100985.16;5101506;28;20584;-66
2022/09/20 11:58:54;;;;;;;1.53;0.83;;;;;;;17.36;61.64;100979.47;5070063;28;20412;-66
2022/09/20 12:01:35;;;;;;;1.90;0.87;;;;;;;17.35;61.43;100977.00;5069694;28;20516;-66
2022/09/20 12:04:25;;;;;;;1.80;0.97;;;;;;;17.35;61.67;100972.09;5071389;28;20961;-66
2022/09/20 12:07:28;;;;;;;1.80;0.90;;;;;;;17.35;61.82;100972.09;5070184;28;21206;-66
2022/09/20 12:10:00;;;;;;;1.73;0.93;;;;;;;17.36;61.40;100967.22;5071150;28;20530;-66
2022/09/20 12:12:40;;;;;;;2.00;1.13;;;;;;;17.36;61.23;100968.03;5069444;28;20421;-66
2022/09/20 12:15:20;;;;;;;1.73;1.10;;;;;;;17.37;61.48;100974.59;5071404;28;20408;-66
2022/09/20 12:17:46;;;;;;;1.70;0.97;;;;;;;17.38;61.03;100965.69;5054636;28;20408;-66
2022/09/20 12:20:33;;;;;;;1.70;1.00;;;;;;;17.39;61.46;100967.38;5071000;28;20393;-66
2022/09/20 12:23:39;;;;;;;1.97;0.93;;;;;;;17.40;61.22;100963.31;5070930;28;20162;-66